• Join FlightAware (Why Join?)
  • Login
  • US Flag 
06:23AM EST


 

Airport Tracker/Info


-or-


 

Live Flight TrackerFlight Track Log ✈ DAL6034 ✈ 15-Apr-2013 ✈ KLGA - KMHT

Flight Track Log - Related Links

Times and Time Zones

All times are in EDT time to prevent confusion due to time zone crossing. See the DAL6034 flight status page for this flight to view local times or setup timezone preferences in your user account.

Time Position Orientation Groundspeed Altitude Reporting Facility
EDT Latitude Longitude Course Direction KTS MPH feet Rate Location/Type
03:33PM 40.7333 -73.8333 33° Northeast 200 230 2,700  Level New York TRACON
03:35PM 40.7839 -73.7586 48° Northeast 216 249 5,600 2,280 Climbing Boston Center
03:36PM 40.8489 -73.7158 26° Northeast 228 262 8,500 2,400 Climbing Boston Center
03:37PM 40.9181 -73.6761 23° Northeast 242 278 10,500 1,380 Climbing Boston Center
03:38PM 40.9831 -73.6361 25° Northeast 274 315 11,400 1,020 Climbing Boston Center
03:39PM 41.2281 -73.5005 33° Northeast  Level FlightAware Approximate
03:39PM 41.0692 -73.5800 26° Northeast 325 374 12,600  Level Boston Center
03:40PM 41.1844 -73.5075 25° Northeast 368 423 13,900 1,140 Climbing Boston Center
03:41PM 41.2894 -73.4375 27° Northeast 377 434 14,900 960 Climbing Boston Center
03:42PM 41.3817 -73.3781 26° Northeast 390 449 15,900 1,020 Climbing Boston Center
03:43PM 41.4906 -73.3019 28° Northeast 401 461 17,000 900 Climbing Boston Center
03:44PM 41.5725 -73.1919 45° Northeast 406 467 17,800 840 Climbing Boston Center
03:45PM 41.6669 -73.1208 29° Northeast 406 467 18,700 900 Climbing Boston Center
03:46PM 41.7669 -73.1303 356° North 381 438 19,700 1,020 Climbing Boston Center
03:47PM 41.8772 -73.1511 352° North 381 438 20,800 1,020 Climbing Boston Center
03:48PM 41.9894 -73.1692 353° North 392 451 21,800 960 Climbing Boston Center
03:49PM 42.1000 -73.1900 352° North 398 458 22,800 540 Climbing Boston Center
03:50PM 42.2103 -73.2081 353° North 398 458 23,000 60 Climbing Boston Center
03:51PM 42.3183 -73.2292 352° North 398 458 23,000 -660 Level Boston Center
03:52PM 42.4267 -73.2417 355° North 398 458 21,800 -1,080 Descending Boston Center
03:53PM 42.5308 -73.2544 355° North 388 447 20,900 -1,020 Descending Boston Center
03:54PM 42.6150 -73.1539 41° Northeast 335 386 19,800 -960 Descending Boston Center
03:55PM 42.6408 -72.9989 77° East 353 406 19,000 -960 Descending Boston Center
03:56PM 42.6769 -72.8525 71° East 377 434 17,900 -1,320 Descending Boston Center
03:57PM 42.7064 -72.7114 74° East 388 447 16,400 -1,680 Descending Boston Center
03:58PM 42.7358 -72.5700 74° East 393 452 14,600 -1,860 Descending Boston Center
03:59PM 42.7650 -72.4344 74° East 380 437 12,800 -1,920 Descending Boston Center
04:00PM 42.7922 -72.3072 74° East 365 420 10,800 -1,620 Descending Boston Center
04:01PM 42.8003 -72.2053 84° East 319 367 9,600 -960 Descending Boston Center
04:02PM 42.8103 -72.0864 83° East 288 331 9,000 -840 Descending Boston Center
04:03PM 42.8206 -71.9928 81° East 283 326 8,000 -1,380 Descending Boston Center
04:04PM 42.8597 -71.8992 60° Northeast 263 303 6,300 -1,560 Descending Boston Center
04:05PM 42.8947 -71.8281 56° Northeast 250 288 4,900 -1,200 Descending Boston Center
04:06PM 42.9381 -71.7453 54° Northeast 245 282 4,000 -480 Descending Boston Center
04:07PM 42.9772 -71.6794 51° Northeast 245 282 4,000 -540 Level Boston Center
04:08PM 43.0058 -71.5942 65° Northeast 226 260 3,000 -780 Descending Boston Center
04:09PM 43.0200 -71.5314 73° East 214 246 2,500 -840 Descending Boston Center
04:10PM 42.9964 -71.4722 119° Southeast 149 171 1,400 -900 Descending Boston Center
04:11PM 42.9631 -71.4556 160° South 130 150 700 -540 Descending Boston Center
04:12PM 42.9336 -71.4250 143° Southeast 130 150 400 -300 Descending Boston Center